Time;durP1;ratioP1;P1;durP2;ratioP2;P2;SDS_P1;SDS_P2;PMS_P1;PMS_P2;Temp;Humidity;BMP_temperature;BMP_pressure;BME280_temperature;BME280_humidity;BME280_pressure;Samples;Min_cycle;Max_cycle;Signal;HPM_P1;HPM_P2
2022/07/17 00:00:40;;;;;;;9.55;2.90;;;;;;;;;;4990929;28;20431;-72
2022/07/17 00:03:06;;;;;;;9.93;3.10;;;;;;;;;;4990943;28;20030;-72
2022/07/17 00:05:32;;;;;;;7.75;3.45;;;;;;;;;;4989531;28;20035;-72
2022/07/17 00:07:57;;;;;;;10.25;3.20;;;;;;;;;;4994740;28;20109;-71
2022/07/17 00:10:23;;;;;;;7.22;3.10;;;;;;;;;;4994271;28;20066;-71
2022/07/17 00:12:49;;;;;;;7.85;2.95;;;;;;;;;;4976337;28;20029;-73
2022/07/17 00:15:15;;;;;;;5.85;3.40;;;;;;;;;;4985957;28;20046;-70
2022/07/17 00:17:41;;;;;;;10.68;3.22;;;;;;;;;;4977516;28;20381;-72
2022/07/17 00:20:08;;;;;;;9.13;3.40;;;;;;;;;;4989428;28;20137;-71
2022/07/17 00:22:33;;;;;;;11.30;3.58;;;;;;;;;;4984597;28;20030;-71
2022/07/17 00:24:59;;;;;;;11.02;3.17;;;;;;;;;;4993224;28;20034;-71
2022/07/17 00:27:25;;;;;;;9.90;3.63;;;;;;;;;;4994027;28;20541;-72
2022/07/17 00:29:51;;;;;;;5.55;3.22;;;;;;;;;;4994365;28;20122;-72
2022/07/17 00:32:17;;;;;;;7.75;3.67;;;;;;;;;;4994465;28;20023;-72
2022/07/17 00:34:43;;;;;;;8.07;3.13;;;;;;;;;;4983544;28;20034;-71
2022/07/17 00:37:08;;;;;;;5.78;3.20;;;;;;;;;;4991186;28;20370;-72
2022/07/17 00:39:34;;;;;;;6.15;2.80;;;;;;;;;;4991492;28;20109;-72
2022/07/17 00:42:00;;;;;;;6.80;2.88;;;;;;;;;;4978272;28;20118;-71
2022/07/17 00:44:27;;;;;;;7.25;3.40;;;;;;;;;;4986737;28;20026;-74
2022/07/17 00:46:53;;;;;;;7.20;2.53;;;;;;;;;;4993763;28;20030;-72
2022/07/17 00:49:19;;;;;;;7.60;3.17;;;;;;;;;;4994128;28;20031;-71
2022/07/17 00:51:44;;;;;;;10.98;3.20;;;;;;;;;;4994071;28;20497;-71
2022/07/17 00:54:13;;;;;;;9.95;3.40;;;;;;;;;;4993535;28;20046;-74
2022/07/17 00:56:42;;;;;;;5.82;2.97;;;;;;;;;;4993785;28;20054;-73
2022/07/17 00:59:09;;;;;;;6.93;3.65;;;;;;;;;;4994041;28;20038;-73
2022/07/17 01:01:34;;;;;;;6.30;3.65;;;;;;;;;;4993437;28;20046;-72
2022/07/17 01:04:00;;;;;;;7.07;3.35;;;;;;;;;;4993539;28;20557;-73
2022/07/17 01:06:26;;;;;;;6.20;3.40;;;;;;;;;;4993975;28;20125;-72
2022/07/17 01:08:52;;;;;;;8.60;3.40;;;;;;;;;;4993539;28;20045;-72
2022/07/17 01:11:18;;;;;;;11.80;3.33;;;;;;;;;;4993871;28;20022;-71
2022/07/17 01:13:44;;;;;;;5.75;3.25;;;;;;;;;;4993278;28;20046;-71
2022/07/17 01:16:10;;;;;;;8.50;3.55;;;;;;;;;;4993504;28;20057;-72
2022/07/17 01:18:36;;;;;;;7.25;3.33;;;;;;;;;;4992558;28;20039;-72
2022/07/17 01:21:04;;;;;;;5.85;3.25;;;;;;;;;;4993086;28;20026;-72
2022/07/17 01:23:30;;;;;;;12.55;3.13;;;;;;;;;;4993253;28;20039;-71
2022/07/17 01:25:56;;;;;;;7.80;3.08;;;;;;;;;;4993202;28;20026;-71
2022/07/17 01:28:22;;;;;;;6.28;3.10;;;;;;;;;;4992669;28;20072;-73
2022/07/17 01:30:50;;;;;;;13.52;3.80;;;;;;;;;;4993213;28;20026;-72
2022/07/17 01:33:16;;;;;;;6.60;2.70;;;;;;;;;;4992806;28;20085;-70
2022/07/17 01:35:42;;;;;;;6.38;2.90;;;;;;;;;;4992754;28;20033;-72
2022/07/17 01:38:08;;;;;;;7.47;3.13;;;;;;;;;;4992687;28;20034;-73
2022/07/17 01:40:34;;;;;;;7.00;3.05;;;;;;;;;;4992728;28;20042;-71
2022/07/17 01:43:00;;;;;;;7.78;2.67;;;;;;;;;;4976488;28;20102;-71
2022/07/17 01:45:26;;;;;;;14.75;3.15;;;;;;;;;;4992979;28;20109;-72
2022/07/17 01:47:52;;;;;;;8.55;3.03;;;;;;;;;;4992917;28;20034;-71
2022/07/17 01:50:18;;;;;;;7.20;2.80;;;;;;;;;;4993607;28;20065;-72
2022/07/17 01:52:45;;;;;;;11.05;2.75;;;;;;;;;;4995353;28;20114;-72
2022/07/17 01:55:13;;;;;;;11.77;3.00;;;;;;;;;;4995152;28;20084;-72
2022/07/17 01:57:40;;;;;;;5.95;2.72;;;;;;;;;;4995242;28;20043;-71
2022/07/17 02:00:09;;;;;;;3.63;2.40;;;;;;;;;;4995050;28;20500;-71
2022/07/17 02:02:35;;;;;;;5.88;2.90;;;;;;;;;;4995101;28;20129;-72
2022/07/17 02:05:01;;;;;;;4.80;2.58;;;;;;;;;;4995068;28;20109;-72
2022/07/17 02:07:27;;;;;;;8.27;2.88;;;;;;;;;;4988464;28;20146;-71
2022/07/17 02:09:52;;;;;;;6.38;2.97;;;;;;;;;;4986437;28;20524;-71
2022/07/17 02:12:18;;;;;;;6.93;2.90;;;;;;;;;;4992256;28;20057;-70
2022/07/17 02:14:44;;;;;;;5.55;2.70;;;;;;;;;;4992077;28;20116;-71
2022/07/17 02:17:10;;;;;;;4.90;3.03;;;;;;;;;;4991982;28;20043;-73
2022/07/17 02:19:37;;;;;;;5.70;2.60;;;;;;;;;;4991752;28;20488;-72
2022/07/17 02:22:03;;;;;;;6.43;2.72;;;;;;;;;;4992221;28;20037;-70
2022/07/17 02:24:28;;;;;;;4.00;2.63;;;;;;;;;;4991925;28;20105;-72
2022/07/17 02:26:54;;;;;;;6.43;2.95;;;;;;;;;;4992160;28;20123;-72
2022/07/17 02:29:20;;;;;;;4.50;2.47;;;;;;;;;;4991763;28;20105;-71
2022/07/17 02:31:46;;;;;;;8.55;3.00;;;;;;;;;;4991957;28;20042;-71
2022/07/17 02:34:12;;;;;;;7.53;3.00;;;;;;;;;;4991365;28;20076;-72
2022/07/17 02:36:38;;;;;;;9.82;3.10;;;;;;;;;;4992017;28;20473;-71
2022/07/17 02:39:04;;;;;;;5.55;2.85;;;;;;;;;;4978530;28;20093;-71
2022/07/17 02:41:30;;;;;;;3.25;2.30;;;;;;;;;;4990576;28;20038;-72
2022/07/17 02:43:55;;;;;;;5.22;2.55;;;;;;;;;;4991985;28;20044;-73
2022/07/17 02:46:21;;;;;;;6.07;2.78;;;;;;;;;;4991563;28;20034;-72
2022/07/17 02:48:47;;;;;;;6.90;2.70;;;;;;;;;;4991662;28;20088;-72
2022/07/17 02:51:13;;;;;;;6.70;3.13;;;;;;;;;;4987527;28;20069;-72
2022/07/17 02:53:38;;;;;;;6.28;3.03;;;;;;;;;;4991640;28;20428;-72
2022/07/17 02:56:05;;;;;;;11.98;3.00;;;;;;;;;;4991629;28;20538;-71
2022/07/17 02:58:31;;;;;;;5.53;2.90;;;;;;;;;;4991541;28;20121;-71
2022/07/17 03:00:57;;;;;;;5.50;2.60;;;;;;;;;;4991451;28;20121;-71
2022/07/17 03:03:22;;;;;;;5.00;2.55;;;;;;;;;;4991487;28;20473;-72
2022/07/17 03:05:48;;;;;;;7.93;2.78;;;;;;;;;;4991738;28;20061;-72
2022/07/17 03:08:14;;;;;;;6.45;2.67;;;;;;;;;;4991484;28;20080;-72
2022/07/17 03:10:40;;;;;;;11.43;2.85;;;;;;;;;;4964574;28;20050;-71
2022/07/17 03:13:06;;;;;;;12.70;3.15;;;;;;;;;;4979688;28;20373;-71
2022/07/17 03:15:32;;;;;;;4.65;2.50;;;;;;;;;;4992473;28;20034;-72
2022/07/17 03:17:58;;;;;;;9.05;2.45;;;;;;;;;;4991680;28;20037;-71
2022/07/17 03:20:24;;;;;;;5.18;2.80;;;;;;;;;;4991415;28;20477;-71
2022/07/17 03:22:50;;;;;;;4.22;2.50;;;;;;;;;;4991085;28;20129;-72
2022/07/17 03:25:16;;;;;;;5.43;2.40;;;;;;;;;;4990500;28;20027;-73
2022/07/17 03:27:42;;;;;;;7.25;2.50;;;;;;;;;;4991301;28;20027;-71
2022/07/17 03:30:08;;;;;;;4.65;2.45;;;;;;;;;;4990845;28;20438;-71
2022/07/17 03:32:35;;;;;;;4.07;2.70;;;;;;;;;;4991044;28;20030;-71
2022/07/17 03:35:01;;;;;;;7.65;2.63;;;;;;;;;;4991129;28;20093;-72
2022/07/17 03:37:28;;;;;;;4.78;2.83;;;;;;;;;;4990673;28;20512;-71
2022/07/17 03:39:54;;;;;;;7.05;2.90;;;;;;;;;;4990191;28;20066;-71
2022/07/17 03:42:20;;;;;;;10.52;4.80;;;;;;;;;;4990972;28;20034;-71
2022/07/17 03:44:46;;;;;;;7.32;3.10;;;;;;;;;;4990702;28;20034;-71
2022/07/17 03:47:12;;;;;;;3.75;2.90;;;;;;;;;;4991227;28;20523;-71
2022/07/17 03:49:38;;;;;;;6.43;2.75;;;;;;;;;;4991021;28;20022;-71
2022/07/17 03:52:04;;;;;;;4.13;2.65;;;;;;;;;;4989500;28;20034;-72
2022/07/17 03:54:30;;;;;;;9.23;2.92;;;;;;;;;;4981520;28;20450;-72
2022/07/17 03:56:55;;;;;;;5.88;2.60;;;;;;;;;;4989312;28;20046;-70
2022/07/17 03:59:22;;;;;;;6.32;2.50;;;;;;;;;;4990536;28;20061;-71
2022/07/17 04:01:47;;;;;;;6.07;2.58;;;;;;;;;;4990875;28;20105;-70
2022/07/17 04:04:13;;;;;;;5.80;2.85;;;;;;;;;;4990038;28;20113;-70
2022/07/17 04:06:39;;;;;;;7.63;3.00;;;;;;;;;;4982737;28;20424;-69
2022/07/17 04:09:05;;;;;;;5.15;2.30;;;;;;;;;;4985957;28;20132;-70
2022/07/17 04:11:31;;;;;;;9.77;2.90;;;;;;;;;;4989449;28;20478;-71
2022/07/17 04:13:57;;;;;;;4.28;2.33;;;;;;;;;;4989093;28;20095;-70
2022/07/17 04:16:23;;;;;;;5.75;2.65;;;;;;;;;;4989638;28;20061;-70
2022/07/17 04:18:49;;;;;;;6.82;2.50;;;;;;;;;;4989514;28;20114;-71
2022/07/17 04:21:15;;;;;;;8.63;3.30;;;;;;;;;;4989585;28;20117;-71
2022/07/17 04:23:41;;;;;;;6.43;3.15;;;;;;;;;;4989839;28;20057;-74
2022/07/17 04:26:07;;;;;;;9.10;3.58;;;;;;;;;;4989389;28;20514;-70
2022/07/17 04:28:34;;;;;;;11.57;3.47;;;;;;;;;;4989585;28;20042;-72
2022/07/17 04:31:00;;;;;;;7.05;3.63;;;;;;;;;;4989320;28;20049;-72
2022/07/17 04:33:27;;;;;;;8.10;3.70;;;;;;;;;;4989667;28;20057;-72
2022/07/17 04:35:53;;;;;;;7.07;3.58;;;;;;;;;;4981937;28;20035;-74
2022/07/17 04:38:18;;;;;;;10.50;3.67;;;;;;;;;;4983347;28;20125;-71
2022/07/17 04:40:46;;;;;;;10.32;3.80;;;;;;;;;;4989405;28;20125;-71
2022/07/17 04:43:12;;;;;;;10.70;3.55;;;;;;;;;;4989797;28;20062;-71
2022/07/17 04:45:38;;;;;;;9.77;3.90;;;;;;;;;;4989604;28;20038;-71
2022/07/17 04:48:04;;;;;;;10.95;4.03;;;;;;;;;;4989306;28;20476;-71
2022/07/17 04:50:31;;;;;;;12.10;3.95;;;;;;;;;;4989585;28;20034;-72
2022/07/17 04:52:57;;;;;;;10.93;3.67;;;;;;;;;;4993045;28;20031;-71
2022/07/17 04:55:23;;;;;;;8.45;3.70;;;;;;;;;;4995281;28;20085;-72
2022/07/17 04:57:49;;;;;;;9.48;3.40;;;;;;;;;;4996444;28;20043;-71
2022/07/17 05:00:16;;;;;;;4.88;3.40;;;;;;;;;;4996552;28;20043;-72
2022/07/17 05:02:42;;;;;;;4.50;3.17;;;;;;;;;;4996554;28;20117;-71
2022/07/17 05:05:08;;;;;;;7.55;2.78;;;;;;;;;;4996546;28;20109;-71
2022/07/17 05:07:34;;;;;;;7.43;2.97;;;;;;;;;;4996417;28;20444;-71
2022/07/17 05:10:00;;;;;;;3.83;2.40;;;;;;;;;;4996376;28;20442;-71
2022/07/17 05:12:26;;;;;;;8.50;2.53;;;;;;;;;;4996521;28;20397;-74
2022/07/17 05:14:52;;;;;;;5.57;2.30;;;;;;;;;;4996079;28;20122;-72
2022/07/17 05:17:18;;;;;;;9.25;2.92;;;;;;;;;;4995878;28;20039;-71
2022/07/17 05:19:43;;;;;;;7.43;2.67;;;;;;;;;;4995830;28;20026;-71
2022/07/17 05:22:09;;;;;;;7.63;2.75;;;;;;;;;;4996095;28;20044;-75
2022/07/17 05:24:35;;;;;;;5.43;2.22;;;;;;;;;;4996006;28;20022;-71
2022/07/17 05:27:01;;;;;;;9.65;2.78;;;;;;;;;;4995635;28;20030;-73
2022/07/17 05:29:27;;;;;;;5.63;2.38;;;;;;;;;;4995760;28;20026;-73
2022/07/17 05:31:53;;;;;;;7.22;2.60;;;;;;;;;;4976461;28;20173;-72
2022/07/17 05:34:19;;;;;;;5.25;2.50;;;;;;;;;;4960421;28;20113;-71
2022/07/17 05:36:45;;;;;;;7.90;2.55;;;;;;;;;;4963323;28;20027;-72
2022/07/17 05:39:12;;;;;;;10.63;2.88;;;;;;;;;;4976211;28;20023;-72
2022/07/17 05:41:38;;;;;;;8.57;2.78;;;;;;;;;;4973523;28;20035;-73
2022/07/17 05:44:04;;;;;;;8.90;2.80;;;;;;;;;;4976240;28;20074;-72
2022/07/17 05:46:30;;;;;;;8.10;2.65;;;;;;;;;;4972696;28;20038;-72
2022/07/17 05:48:56;;;;;;;7.93;2.63;;;;;;;;;;4994147;28;20034;-71
2022/07/17 05:51:22;;;;;;;9.50;2.72;;;;;;;;;;4986185;28;20030;-70
2022/07/17 05:53:48;;;;;;;9.13;2.85;;;;;;;;;;4975644;28;20027;-72
2022/07/17 05:56:14;;;;;;;11.35;3.20;;;;;;;;;;4964907;28;20106;-74
2022/07/17 05:58:39;;;;;;;11.77;3.10;;;;;;;;;;4955624;28;20343;-71
2022/07/17 06:01:05;;;;;;;6.28;2.60;;;;;;;;;;4973932;28;20047;-72
2022/07/17 06:03:31;;;;;;;9.45;2.65;;;;;;;;;;4974578;28;20077;-69
2022/07/17 06:05:57;;;;;;;9.18;2.70;;;;;;;;;;4975324;28;20038;-72
2022/07/17 06:08:23;;;;;;;6.07;2.63;;;;;;;;;;4975096;28;20406;-72
2022/07/17 06:10:48;;;;;;;7.82;2.90;;;;;;;;;;4966588;28;20035;-72
2022/07/17 06:13:14;;;;;;;6.38;2.38;;;;;;;;;;4955823;28;20027;-72
2022/07/17 06:15:40;;;;;;;5.15;2.58;;;;;;;;;;4955965;28;20066;-72
2022/07/17 06:18:06;;;;;;;7.97;3.20;;;;;;;;;;4955860;28;20151;-73
2022/07/17 06:20:32;;;;;;;7.70;2.60;;;;;;;;;;4955822;28;20118;-76
2022/07/17 06:22:58;;;;;;;6.03;2.35;;;;;;;;;;4968113;28;20034;-73
2022/07/17 06:25:23;;;;;;;6.40;2.50;;;;;;;;;;4955408;28;20039;-73
2022/07/17 06:27:49;;;;;;;6.53;2.53;;;;;;;;;;4969200;28;20034;-71
2022/07/17 06:30:16;;;;;;;6.47;2.33;;;;;;;;;;4974448;28;20106;-73
2022/07/17 06:32:42;;;;;;;7.28;2.67;;;;;;;;;;4974727;28;20049;-71
2022/07/17 06:35:09;;;;;;;5.10;2.55;;;;;;;;;;4974911;28;20035;-71
2022/07/17 06:37:35;;;;;;;6.30;2.92;;;;;;;;;;4973218;28;20047;-74
2022/07/17 06:40:01;;;;;;;3.42;2.30;;;;;;;;;;4966556;28;20038;-72
2022/07/17 06:42:27;;;;;;;5.80;2.50;;;;;;;;;;4955347;28;20115;-73
2022/07/17 06:44:53;;;;;;;7.95;2.55;;;;;;;;;;4955320;28;20035;-74
2022/07/17 06:47:19;;;;;;;3.83;2.10;;;;;;;;;;4955361;28;20023;-73
2022/07/17 06:49:45;;;;;;;5.75;2.80;;;;;;;;;;4969931;28;20042;-71
2022/07/17 06:52:11;;;;;;;6.72;2.72;;;;;;;;;;4964843;28;20035;-72
2022/07/17 06:54:36;;;;;;;8.10;2.97;;;;;;;;;;4964935;28;20089;-72
2022/07/17 06:57:02;;;;;;;6.55;2.70;;;;;;;;;;4960411;28;20491;-72
2022/07/17 06:59:32;;;;;;;3.72;2.70;;;;;;;;;;4954769;28;20074;-78
2022/07/17 07:01:57;;;;;;;6.85;2.75;;;;;;;;;;4959219;28;20097;-75
2022/07/17 07:04:23;;;;;;;6.45;2.80;;;;;;;;;;4954880;29;20031;-75
2022/07/17 07:06:49;;;;;;;4.30;2.70;;;;;;;;;;4954961;28;20057;-72
2022/07/17 07:09:15;;;;;;;5.82;2.55;;;;;;;;;;4954896;28;20062;-73
2022/07/17 07:11:41;;;;;;;4.72;2.65;;;;;;;;;;4954957;28;20437;-71
2022/07/17 07:14:07;;;;;;;5.15;2.60;;;;;;;;;;4954294;28;20064;-76
2022/07/17 07:16:34;;;;;;;3.88;2.72;;;;;;;;;;4957800;28;20459;-74
2022/07/17 07:19:00;;;;;;;5.15;2.45;;;;;;;;;;4973701;28;20101;-75
2022/07/17 07:21:26;;;;;;;7.53;2.40;;;;;;;;;;4973967;28;20027;-73
2022/07/17 07:23:55;;;;;;;2.80;2.10;;;;;;;;;;4973904;28;20146;-72
2022/07/17 07:26:22;;;;;;;4.10;2.50;;;;;;;;;;4973246;28;20073;-72
2022/07/17 07:28:48;;;;;;;4.35;2.17;;;;;;;;;;4973821;28;20041;-72
2022/07/17 07:31:14;;;;;;;6.15;2.80;;;;;;;;;;4973584;28;20031;-73
2022/07/17 07:33:40;;;;;;;6.78;2.30;;;;;;;;;;4971532;28;20039;-75
2022/07/17 07:36:05;;;;;;;6.25;2.38;;;;;;;;;;4963960;28;20106;-73
2022/07/17 07:38:31;;;;;;;11.52;2.78;;;;;;;;;;4962740;28;20324;-73
2022/07/17 07:40:57;;;;;;;3.95;2.20;;;;;;;;;;4973112;28;20038;-73
2022/07/17 07:43:23;;;;;;;6.97;2.55;;;;;;;;;;4973732;28;20470;-74
2022/07/17 07:45:50;;;;;;;8.55;2.70;;;;;;;;;;4973384;28;20030;-73
2022/07/17 07:48:16;;;;;;;4.20;2.40;;;;;;;;;;4973709;28;20041;-72
2022/07/17 07:50:42;;;;;;;4.95;2.58;;;;;;;;;;4973420;28;20549;-75
2022/07/17 07:53:07;;;;;;;4.97;2.65;;;;;;;;;;4972769;28;20039;-73
2022/07/17 07:55:33;;;;;;;4.65;2.55;;;;;;;;;;4973166;28;20394;-76
2022/07/17 07:58:07;;;;;;;5.03;2.47;;;;;;;;;;4973003;28;20403;-75
2022/07/17 08:00:33;;;;;;;6.20;2.60;;;;;;;;;;4973137;28;20050;-72
2022/07/17 08:02:59;;;;;;;4.57;2.60;;;;;;;;;;4973444;28;20027;-73
2022/07/17 08:05:25;;;;;;;6.00;2.80;;;;;;;;;;4972611;28;20443;-74
2022/07/17 08:07:52;;;;;;;3.83;2.30;;;;;;;;;;4973134;28;20022;-75
2022/07/17 08:10:18;;;;;;;8.20;3.10;;;;;;;;;;4973179;28;20520;-72
2022/07/17 08:12:43;;;;;;;6.55;2.88;;;;;;;;;;4972892;28;20031;-73
2022/07/17 08:15:09;;;;;;;4.75;2.42;;;;;;;;;;4973184;28;20035;-74
2022/07/17 08:17:35;;;;;;;6.30;2.60;;;;;;;;;;4972570;28;20035;-73
2022/07/17 08:20:01;;;;;;;4.72;2.78;;;;;;;;;;4966425;28;20045;-77
2022/07/17 08:31:53;;;;;;;5.72;2.28;;;;;;;;;;4973509;28;20063;-74
2022/07/17 08:34:19;;;;;;;4.43;2.08;;;;;;;;;;4976655;28;20386;-73
2022/07/17 08:36:45;;;;;;;6.20;2.40;;;;;;;;;;4975829;28;20031;-74
2022/07/17 08:39:11;;;;;;;4.93;2.28;;;;;;;;;;4976776;28;20559;-73
2022/07/17 08:41:38;;;;;;;4.82;2.47;;;;;;;;;;4976315;28;20046;-72
2022/07/17 08:44:08;;;;;;;4.95;2.20;;;;;;;;;;4976822;28;20027;-76
2022/07/17 08:46:37;;;;;;;6.05;2.20;;;;;;;;;;4972501;28;20043;-71
2022/07/17 08:49:04;;;;;;;8.02;2.15;;;;;;;;;;4968093;28;20039;-72
2022/07/17 08:51:30;;;;;;;3.53;2.35;;;;;;;;;;4957224;29;20066;-73
2022/07/17 08:53:57;;;;;;;10.20;2.40;;;;;;;;;;4959128;29;20023;-72
2022/07/17 08:56:24;;;;;;;5.25;2.35;;;;;;;;;;4976371;28;20031;-70
2022/07/17 08:58:50;;;;;;;4.05;2.20;;;;;;;;;;4976131;28;20081;-72
2022/07/17 09:01:18;;;;;;;6.97;2.40;;;;;;;;;;4968498;28;20036;-77
2022/07/17 09:03:54;;;;;;;4.18;2.30;;;;;;;;;;4957225;29;20054;-73
2022/07/17 09:06:21;;;;;;;5.05;2.20;;;;;;;;;;4974491;28;20031;-75
2022/07/17 09:08:47;;;;;;;5.90;2.60;;;;;;;;;;4976267;28;20035;-75
2022/07/17 09:11:13;;;;;;;9.73;2.35;;;;;;;;;;4976573;28;20401;-75
2022/07/17 09:13:44;;;;;;;4.25;2.38;;;;;;;;;;4976380;28;20034;-72
2022/07/17 09:16:12;;;;;;;6.68;2.40;;;;;;;;;;4976030;28;20462;-72
2022/07/17 09:18:50;;;;;;;3.67;2.28;;;;;;;;;;4977512;28;20034;-76
2022/07/17 09:21:24;;;;;;;3.13;2.10;;;;;;;;;;4981324;28;20031;-74
2022/07/17 09:24:04;;;;;;;6.00;2.42;;;;;;;;;;4981185;28;20124;-73
2022/07/17 09:26:30;;;;;;;3.88;2.28;;;;;;;;;;4977860;28;20034;-70
2022/07/17 09:28:56;;;;;;;5.15;2.13;;;;;;;;;;4976598;28;20105;-73
2022/07/17 09:31:30;;;;;;;5.85;2.55;;;;;;;;;;4979589;28;20086;-71
2022/07/17 09:33:56;;;;;;;6.68;2.47;;;;;;;;;;4987899;28;20039;-75
2022/07/17 09:36:23;;;;;;;8.05;2.60;;;;;;;;;;4979227;28;20019;-74
2022/07/17 09:38:53;;;;;;;4.63;2.35;;;;;;;;;;4975303;28;20035;-71
2022/07/17 09:41:21;;;;;;;9.98;2.63;;;;;;;;;;4975294;28;20026;-73
2022/07/17 09:43:58;;;;;;;5.63;2.70;;;;;;;;;;4976601;28;20031;-72
2022/07/17 09:46:33;;;;;;;4.05;2.47;;;;;;;;;;4977906;28;20034;-75
2022/07/17 09:49:02;;;;;;;6.45;2.40;;;;;;;;;;4975066;28;20118;-73
2022/07/17 09:51:39;;;;;;;4.95;2.30;;;;;;;;;;4975195;28;20027;-72
2022/07/17 09:54:08;;;;;;;2.90;2.13;;;;;;;;;;4975300;28;20041;-74
2022/07/17 09:56:35;;;;;;;8.20;2.58;;;;;;;;;;4975431;28;20027;-74
2022/07/17 09:59:10;;;;;;;3.88;2.10;;;;;;;;;;4974980;28;20030;-72
2022/07/17 10:01:38;;;;;;;2.58;2.05;;;;;;;;;;4974714;28;20521;-72
2022/07/17 10:04:05;;;;;;;7.65;2.58;;;;;;;;;;4973738;28;20022;-72
2022/07/17 10:06:31;;;;;;;3.92;2.22;;;;;;;;;;4974787;28;20087;-72
2022/07/17 10:08:57;;;;;;;7.78;2.38;;;;;;;;;;4974553;28;20105;-73
2022/07/17 10:11:27;;;;;;;6.20;2.55;;;;;;;;;;4975418;28;20034;-73
2022/07/17 10:13:55;;;;;;;3.63;2.30;;;;;;;;;;4975743;28;20027;-72
2022/07/17 10:16:30;;;;;;;5.47;2.33;;;;;;;;;;4975376;28;20030;-74
2022/07/17 10:18:57;;;;;;;4.03;2.40;;;;;;;;;;4975327;28;20027;-71
2022/07/17 10:21:25;;;;;;;3.25;2.10;;;;;;;;;;4975637;28;20027;-71
2022/07/17 10:23:54;;;;;;;4.32;2.50;;;;;;;;;;4975590;28;20035;-71
2022/07/17 10:26:33;;;;;;;3.63;2.10;;;;;;;;;;4975571;28;20113;-71
2022/07/17 10:28:59;;;;;;;6.00;2.70;;;;;;;;;;4975623;28;20038;-72
2022/07/17 10:31:28;;;;;;;4.30;2.30;;;;;;;;;;4975362;28;20043;-72
2022/07/17 10:34:01;;;;;;;4.57;2.58;;;;;;;;;;4975296;28;20037;-70
2022/07/17 10:36:37;;;;;;;4.45;2.33;;;;;;;;;;4975026;28;20042;-73
2022/07/17 10:39:13;;;;;;;5.80;2.60;;;;;;;;;;4975063;28;20042;-71
2022/07/17 10:41:41;;;;;;;6.32;2.70;;;;;;;;;;4975945;28;20393;-70
2022/07/17 10:44:07;;;;;;;3.60;2.20;;;;;;;;;;4977511;28;20027;-74
2022/07/17 10:46:33;;;;;;;5.35;2.35;;;;;;;;;;4977656;28;20078;-72
2022/07/17 10:49:03;;;;;;;4.35;2.22;;;;;;;;;;4957801;28;20555;-71
2022/07/17 10:51:32;;;;;;;5.35;2.15;;;;;;;;;;4975212;28;20030;-71
2022/07/17 10:53:59;;;;;;;3.88;2.00;;;;;;;;;;4974757;28;20027;-72
2022/07/17 10:56:26;;;;;;;7.45;2.40;;;;;;;;;;4974841;28;20050;-75
2022/07/17 10:58:53;;;;;;;6.60;2.60;;;;;;;;;;4974721;28;20037;-75
2022/07/17 11:01:21;;;;;;;6.38;2.58;;;;;;;;;;4975071;28;20045;-72
2022/07/17 11:03:48;;;;;;;6.00;2.58;;;;;;;;;;4974976;28;20022;-73
2022/07/17 11:06:15;;;;;;;3.33;2.50;;;;;;;;;;4975296;28;20030;-75
2022/07/17 11:08:46;;;;;;;2.92;2.25;;;;;;;;;;4974926;28;20030;-72
2022/07/17 11:11:13;;;;;;;2.85;2.30;;;;;;;;;;4974716;28;20039;-77
2022/07/17 11:13:39;;;;;;;4.80;2.40;;;;;;;;;;4974857;28;20458;-74
2022/07/17 11:16:05;;;;;;;6.97;3.58;;;;;;;;;;4974763;28;20039;-73
2022/07/17 11:18:30;;;;;;;3.55;2.13;;;;;;;;;;4974691;28;20105;-71
2022/07/17 11:20:59;;;;;;;7.05;4.57;;;;;;;;;;4974606;28;20479;-73
2022/07/17 11:23:28;;;;;;;8.43;4.90;;;;;;;;;;4957461;28;20030;-72
2022/07/17 11:26:04;;;;;;;7.07;4.30;;;;;;;;;;4974293;28;20066;-71
2022/07/17 11:28:42;;;;;;;9.60;3.70;;;;;;;;;;4974322;28;20085;-72
2022/07/17 11:31:22;;;;;;;9.43;6.93;;;;;;;;;;4974131;28;20066;-72
2022/07/17 11:33:53;;;;;;;4.82;2.80;;;;;;;;;;4974223;28;20034;-71
2022/07/17 11:36:28;;;;;;;4.88;2.40;;;;;;;;;;4974715;28;20142;-71
2022/07/17 11:38:55;;;;;;;5.00;4.35;;;;;;;;;;4974561;28;20030;-72
2022/07/17 11:41:21;;;;;;;5.30;2.35;;;;;;;;;;4957043;28;20031;-71
2022/07/17 11:43:47;;;;;;;5.93;2.90;;;;;;;;;;4974527;28;20042;-72
2022/07/17 11:46:16;;;;;;;7.20;2.55;;;;;;;;;;4974317;28;20389;-70
2022/07/17 11:48:43;;;;;;;5.32;2.42;;;;;;;;;;4974277;28;20042;-71
2022/07/17 11:51:10;;;;;;;6.15;3.28;;;;;;;;;;4974184;28;20034;-71
2022/07/17 11:53:38;;;;;;;5.75;2.30;;;;;;;;;;4974224;28;20520;-71
2022/07/17 11:56:05;;;;;;;3.55;2.25;;;;;;;;;;4974230;28;20031;-70
2022/07/17 11:58:42;;;;;;;4.65;2.17;;;;;;;;;;4974165;28;20385;-70
2022/07/17 12:01:08;;;;;;;5.85;2.63;;;;;;;;;;4974389;28;20062;-71
2022/07/17 12:03:34;;;;;;;5.32;2.20;;;;;;;;;;4978035;28;20034;-72
2022/07/17 12:06:00;;;;;;;8.55;2.30;;;;;;;;;;4978162;28;20030;-71
2022/07/17 12:08:25;;;;;;;6.18;2.30;;;;;;;;;;4978311;28;20058;-71
2022/07/17 12:11:03;;;;;;;6.57;2.35;;;;;;;;;;4978145;28;20112;-71
2022/07/17 12:13:48;;;;;;;5.38;2.40;;;;;;;;;;4977048;28;20089;-71
2022/07/17 12:16:30;;;;;;;4.00;2.47;;;;;;;;;;4977934;28;20086;-71
2022/07/17 12:19:16;;;;;;;8.73;2.63;;;;;;;;;;4977757;28;20026;-72
2022/07/17 12:22:02;;;;;;;4.22;2.40;;;;;;;;;;4977901;28;20038;-71
2022/07/17 12:24:30;;;;;;;4.10;2.30;;;;;;;;;;4977609;28;20035;-75
2022/07/17 12:26:58;;;;;;;3.67;2.22;;;;;;;;;;4978038;28;20027;-74
2022/07/17 12:29:25;;;;;;;3.95;2.38;;;;;;;;;;4977714;28;20049;-71
2022/07/17 12:32:04;;;;;;;3.20;2.30;;;;;;;;;;4977565;28;20497;-73
2022/07/17 12:34:29;;;;;;;4.97;2.15;;;;;;;;;;4978338;28;20389;-73
2022/07/17 12:36:55;;;;;;;3.35;1.90;;;;;;;;;;4985507;28;20091;-71
2022/07/17 12:39:21;;;;;;;4.18;2.38;;;;;;;;;;4978626;28;20062;-70
2022/07/17 12:41:47;;;;;;;2.72;2.30;;;;;;;;;;4977371;28;20023;-71
2022/07/17 12:44:13;;;;;;;5.13;2.35;;;;;;;;;;4977338;28;20046;-73
2022/07/17 12:46:39;;;;;;;2.88;2.00;;;;;;;;;;4977447;28;20027;-73
2022/07/17 12:49:05;;;;;;;4.68;2.53;;;;;;;;;;4977091;28;20038;-74
2022/07/17 12:51:31;;;;;;;6.63;2.10;;;;;;;;;;4977141;28;20027;-74
2022/07/17 12:53:57;;;;;;;5.70;2.30;;;;;;;;;;4977132;28;20038;-73
2022/07/17 12:56:23;;;;;;;5.47;1.92;;;;;;;;;;4977391;28;20054;-72
2022/07/17 12:58:49;;;;;;;3.28;1.80;;;;;;;;;;4976164;28;20472;-71
2022/07/17 13:01:16;;;;;;;2.90;1.90;;;;;;;;;;4977092;28;20023;-74
2022/07/17 13:03:42;;;;;;;5.30;2.03;;;;;;;;;;4959672;28;20094;-70
2022/07/17 13:06:08;;;;;;;4.03;1.98;;;;;;;;;;4976894;28;20038;-74
2022/07/17 13:08:34;;;;;;;3.60;2.03;;;;;;;;;;4976877;28;20062;-73
2022/07/17 13:11:03;;;;;;;4.38;1.95;;;;;;;;;;4977031;28;20097;-72
2022/07/17 13:13:30;;;;;;;4.25;1.90;;;;;;;;;;4975627;28;20073;-73
2022/07/17 13:15:56;;;;;;;3.55;1.92;;;;;;;;;;4976973;28;20465;-73
2022/07/17 13:18:23;;;;;;;3.83;2.35;;;;;;;;;;4976973;28;20035;-72
2022/07/17 13:20:49;;;;;;;3.78;1.88;;;;;;;;;;4976876;28;20411;-75
2022/07/17 13:23:15;;;;;;;5.53;2.20;;;;;;;;;;4977022;28;20085;-74
2022/07/17 13:25:43;;;;;;;4.28;2.10;;;;;;;;;;4976633;28;20054;-70
2022/07/17 13:28:10;;;;;;;5.07;2.03;;;;;;;;;;4976739;28;20031;-72
2022/07/17 13:30:35;;;;;;;3.10;2.00;;;;;;;;;;4976486;28;20481;-71
2022/07/17 13:33:01;;;;;;;3.08;2.30;;;;;;;;;;4976580;28;20086;-71
2022/07/17 13:35:28;;;;;;;3.75;2.30;;;;;;;;;;4976428;28;20561;-72
2022/07/17 13:37:54;;;;;;;4.35;2.08;;;;;;;;;;4976435;28;20066;-70
2022/07/17 13:40:20;;;;;;;4.00;2.28;;;;;;;;;;4976542;28;20066;-71
2022/07/17 13:42:46;;;;;;;5.95;2.20;;;;;;;;;;4976380;28;20030;-72
2022/07/17 13:45:12;;;;;;;3.30;2.30;;;;;;;;;;4976039;28;20534;-71
2022/07/17 13:47:38;;;;;;;3.47;1.92;;;;;;;;;;4976303;28;20039;-71
2022/07/17 13:50:05;;;;;;;4.78;2.60;;;;;;;;;;4976283;28;20035;-71
2022/07/17 13:52:31;;;;;;;3.92;2.10;;;;;;;;;;4976140;28;20037;-71
2022/07/17 13:54:57;;;;;;;2.53;2.17;;;;;;;;;;4976083;28;20035;-70
2022/07/17 13:57:24;;;;;;;3.75;2.10;;;;;;;;;;4975931;28;20038;-72
2022/07/17 13:59:50;;;;;;;3.63;2.20;;;;;;;;;;4975548;28;20473;-76
2022/07/17 14:02:16;;;;;;;5.97;2.25;;;;;;;;;;4975847;28;20112;-71
2022/07/17 14:04:42;;;;;;;5.20;2.20;;;;;;;;;;4975614;28;20050;-72
2022/07/17 14:07:08;;;;;;;4.18;2.22;;;;;;;;;;4975881;28;20489;-72
2022/07/17 14:09:34;;;;;;;4.28;2.35;;;;;;;;;;4975610;28;20035;-71
2022/07/17 14:12:00;;;;;;;4.70;2.30;;;;;;;;;;4975901;28;20058;-76
2022/07/17 14:14:25;;;;;;;3.53;2.58;;;;;;;;;;4975632;28;20086;-72
2022/07/17 14:16:52;;;;;;;5.50;2.50;;;;;;;;;;4975729;28;20466;-74
2022/07/17 14:19:18;;;;;;;6.53;2.33;;;;;;;;;;4975823;28;20035;-73
2022/07/17 14:21:44;;;;;;;5.57;2.38;;;;;;;;;;4975918;28;20499;-72
2022/07/17 14:24:10;;;;;;;4.43;2.15;;;;;;;;;;4975191;28;20027;-72
2022/07/17 14:26:36;;;;;;;2.90;2.28;;;;;;;;;;4976073;28;20071;-72
2022/07/17 14:29:04;;;;;;;3.30;2.40;;;;;;;;;;4964326;28;20053;-71
2022/07/17 14:31:30;;;;;;;4.65;2.45;;;;;;;;;;4976870;28;20050;-71
2022/07/17 14:33:55;;;;;;;3.95;2.42;;;;;;;;;;4975213;28;20443;-72
2022/07/17 14:36:21;;;;;;;5.10;2.10;;;;;;;;;;4975437;28;20035;-70
2022/07/17 14:38:47;;;;;;;5.05;2.38;;;;;;;;;;4975205;28;20098;-71
2022/07/17 14:41:13;;;;;;;3.10;2.15;;;;;;;;;;4975287;28;20031;-71
2022/07/17 14:43:40;;;;;;;4.18;2.30;;;;;;;;;;4975144;28;20031;-72
2022/07/17 14:46:06;;;;;;;4.38;2.28;;;;;;;;;;4957989;28;20134;-70
2022/07/17 14:48:31;;;;;;;2.92;2.35;;;;;;;;;;4975198;28;20031;-69
2022/07/17 14:50:57;;;;;;;5.35;2.58;;;;;;;;;;4975049;28;20046;-73